Time;durP1;ratioP1;P1;durP2;ratioP2;P2;SDS_P1;SDS_P2;PMS_P1;PMS_P2;Temp;Humidity;BMP_temperature;BMP_pressure;BME280_temperature;BME280_humidity;BME280_pressure;Samples;Min_cycle;Max_cycle;Signal;HPM_P1;HPM_P2
2022/01/04 00:01:16;;;;;;;10.65;0.90;;;;;;;6.23;78.38;98560.19;4960950;28;20491;-59
2022/01/04 00:03:43;;;;;;;11.63;1.27;;;;;;;6.22;77.59;98554.22;4964242;28;20043;-57
2022/01/04 00:06:10;;;;;;;6.47;1.48;;;;;;;6.20;78.12;98552.50;4961785;28;20051;-59
2022/01/04 00:08:36;;;;;;;13.40;1.63;;;;;;;6.23;78.06;98549.91;4966156;28;20046;-58
2022/01/04 00:11:14;;;;;;;13.63;1.50;;;;;;;6.23;78.76;98543.06;4962619;28;20106;-56
2022/01/04 00:13:41;;;;;;;6.15;1.55;;;;;;;6.22;78.36;98538.78;4966527;28;20454;-55
2022/01/04 00:16:10;;;;;;;11.80;2.20;;;;;;;6.22;77.83;98537.94;4968818;28;20046;-53
2022/01/04 00:18:37;;;;;;;9.15;1.05;;;;;;;6.23;78.30;98539.63;4964128;28;20047;-55
2022/01/04 00:21:05;;;;;;;8.95;1.10;;;;;;;6.23;77.96;98524.19;4961403;28;20046;-57
2022/01/04 00:23:32;;;;;;;5.63;1.23;;;;;;;6.23;78.44;98519.91;4960628;28;20101;-61
2022/01/04 00:25:59;;;;;;;9.70;2.17;;;;;;;6.25;78.32;98513.03;4964922;28;20964;-52
2022/01/04 00:28:27;;;;;;;7.72;1.17;;;;;;;6.25;78.29;98517.34;4964834;28;20059;-52
2022/01/04 00:30:53;;;;;;;10.13;1.27;;;;;;;6.27;78.40;98515.56;4961141;28;20094;-56
2022/01/04 00:33:20;;;;;;;7.40;0.95;;;;;;;6.27;77.39;98507.88;4965161;28;20100;-58
2022/01/04 00:35:46;;;;;;;12.95;1.42;;;;;;;6.29;77.56;98503.56;4961429;28;20046;-55
2022/01/04 00:38:13;;;;;;;13.45;1.75;;;;;;;6.29;77.62;98508.72;4959090;28;20058;-58
2022/01/04 00:40:40;;;;;;;7.75;0.95;;;;;;;6.32;78.85;98506.13;4962966;28;21249;-56
2022/01/04 00:43:06;;;;;;;6.40;1.15;;;;;;;6.35;79.01;98503.50;4963252;28;20054;-58
2022/01/04 00:45:36;;;;;;;5.07;0.90;;;;;;;6.38;77.93;98502.63;4966246;28;20518;-56
2022/01/04 00:50:52;;;;;;;7.85;0.73;;;;;;;6.40;78.82;98506.88;4968322;28;20565;-56
2022/01/04 00:53:19;;;;;;;13.05;1.70;;;;;;;6.43;79.08;98506.81;4966979;28;20105;-59
2022/01/04 00:55:46;;;;;;;8.73;1.13;;;;;;;6.43;78.61;98493.97;4964449;28;20102;-56
2022/01/04 00:58:13;;;;;;;8.00;1.20;;;;;;;6.45;78.35;98498.28;4967984;28;20051;-55
2022/01/04 01:00:40;;;;;;;10.57;1.23;;;;;;;6.46;78.90;98484.53;4964427;28;20051;-51
2022/01/04 01:03:08;;;;;;;10.00;1.90;;;;;;;6.48;78.35;98477.66;4963062;28;20043;-52
2022/01/04 01:05:36;;;;;;;6.63;1.42;;;;;;;6.48;77.55;98475.09;4966716;28;20038;-57
2022/01/04 01:08:03;;;;;;;11.32;1.52;;;;;;;6.52;79.41;98474.19;4963165;28;20055;-57
2022/01/04 01:10:42;;;;;;;12.40;1.20;;;;;;;6.53;77.89;98475.88;4966505;28;20062;-58
2022/01/04 01:13:11;;;;;;;7.50;1.10;;;;;;;6.56;78.17;98465.56;4963034;28;20200;-55
2022/01/04 01:15:40;;;;;;;9.98;1.90;;;;;;;6.59;78.21;98470.69;4967628;28;20093;-53
2022/01/04 01:18:08;;;;;;;6.25;1.42;;;;;;;6.59;79.28;98462.97;4966179;28;20054;-55
2022/01/04 01:20:34;;;;;;;11.95;1.30;;;;;;;6.59;79.28;98450.09;4963760;28;20042;-59
2022/01/04 01:23:02;;;;;;;8.80;1.50;;;;;;;6.62;79.30;98450.03;4965421;28;20446;-56
2022/01/04 01:25:28;;;;;;;10.15;1.27;;;;;;;6.64;77.46;98453.44;4965408;28;20050;-58
2022/01/04 01:27:55;;;;;;;11.88;1.77;;;;;;;6.65;78.16;98447.44;4965659;28;20093;-58
2022/01/04 01:30:22;;;;;;;8.07;1.00;;;;;;;6.65;78.88;98436.28;4966182;28;20047;-57
2022/01/04 01:32:51;;;;;;;10.82;1.63;;;;;;;6.64;79.31;98425.16;4968838;28;20058;-53
2022/01/04 01:35:18;;;;;;;10.48;1.75;;;;;;;6.65;78.49;98429.41;4964389;28;20043;-56
2022/01/04 01:37:45;;;;;;;14.82;1.38;;;;;;;6.65;79.26;98429.41;4962473;28;20078;-53
2022/01/04 01:40:12;;;;;;;13.32;2.15;;;;;;;6.66;78.57;98423.38;4967918;28;20122;-55
2022/01/04 01:42:39;;;;;;;6.78;1.40;;;;;;;6.67;77.48;98427.69;4968157;28;20109;-54
2022/01/04 01:45:07;;;;;;;7.07;1.48;;;;;;;6.66;78.30;98420.81;4967000;28;20498;-56
2022/01/04 01:47:35;;;;;;;11.38;1.40;;;;;;;6.64;79.27;98412.28;4965231;28;20042;-54
2022/01/04 01:50:02;;;;;;;12.68;1.95;;;;;;;6.64;77.62;98412.28;4967532;28;20114;-54
2022/01/04 01:52:28;;;;;;;8.85;1.30;;;;;;;6.62;78.07;98408.88;4964229;28;20055;-52
2022/01/04 01:54:55;;;;;;;12.00;1.27;;;;;;;6.62;77.61;98419.16;4964807;28;20522;-52
2022/01/04 01:57:24;;;;;;;3.13;0.95;;;;;;;6.61;78.06;98406.31;4964510;28;20063;-53
2022/01/04 01:59:50;;;;;;;8.18;1.45;;;;;;;6.58;77.86;98407.22;4960405;28;20521;-57
2022/01/04 02:02:17;;;;;;;12.02;1.55;;;;;;;6.55;78.15;98396.94;4961414;28;20102;-57
2022/01/04 02:04:44;;;;;;;13.10;1.45;;;;;;;6.51;77.41;98406.44;4961556;28;20054;-58
2022/01/04 02:07:11;;;;;;;13.48;1.70;;;;;;;6.46;78.12;98415.94;4963039;28;20097;-59
2022/01/04 02:09:41;;;;;;;9.07;1.75;;;;;;;6.45;77.82;98405.69;4966874;28;20703;-57
2022/01/04 02:12:09;;;;;;;11.23;1.20;;;;;;;6.42;79.13;98407.41;4962383;28;20050;-55
2022/01/04 02:14:36;;;;;;;6.57;1.60;;;;;;;6.41;77.96;98399.69;4965357;28;20046;-54
2022/01/04 02:17:02;;;;;;;15.20;1.73;;;;;;;6.42;78.42;98397.13;4964445;28;20051;-57
2022/01/04 02:19:35;;;;;;;9.40;1.30;;;;;;;6.41;79.26;98400.56;4967981;28;20050;-58
2022/01/04 02:22:02;;;;;;;11.95;1.70;;;;;;;6.41;79.56;98389.41;4963117;28;20046;-56
2022/01/04 02:24:29;;;;;;;12.13;1.85;;;;;;;6.42;79.36;98397.13;4962031;28;20051;-58
2022/01/04 02:26:55;;;;;;;6.72;1.55;;;;;;;6.42;78.42;98391.13;4962877;28;20102;-55
2022/01/04 02:29:22;;;;;;;12.20;1.65;;;;;;;6.42;78.48;98391.97;4959324;28;20054;-60
2022/01/04 02:31:48;;;;;;;8.48;1.70;;;;;;;6.43;78.33;98388.53;4965331;28;20129;-60
2022/01/04 02:34:15;;;;;;;11.13;1.25;;;;;;;6.44;78.31;98384.25;4963474;28;20623;-60
2022/01/04 02:36:42;;;;;;;18.67;1.88;;;;;;;6.45;79.21;98379.97;4961881;28;20050;-54
2022/01/04 02:39:08;;;;;;;17.10;2.63;;;;;;;6.46;79.01;98372.22;4963137;28;20061;-54
2022/01/04 02:41:35;;;;;;;7.45;1.05;;;;;;;6.46;78.78;98371.38;4965183;28;20105;-60
2022/01/04 02:44:02;;;;;;;11.30;1.55;;;;;;;6.48;79.51;98372.22;4967899;28;20102;-54
2022/01/04 02:46:28;;;;;;;8.05;1.35;;;;;;;6.49;78.98;98376.47;4967462;28;20046;-57
2022/01/04 02:48:55;;;;;;;15.38;1.95;;;;;;;6.50;78.68;98373.03;4969413;28;20105;-55
2022/01/04 02:51:23;;;;;;;17.65;1.70;;;;;;;6.51;79.16;98375.56;4962778;28;20526;-53
2022/01/04 02:53:50;;;;;;;14.23;1.85;;;;;;;6.51;79.13;98378.16;4969779;28;20050;-57
2022/01/04 02:56:16;;;;;;;14.52;1.42;;;;;;;6.53;79.48;98373.00;4966213;28;20102;-57
2022/01/04 02:58:43;;;;;;;11.25;1.40;;;;;;;6.54;78.28;98369.53;4967749;28;20117;-54
2022/01/04 03:01:10;;;;;;;12.85;2.13;;;;;;;6.54;78.75;98364.38;4967483;28;20158;-54
2022/01/04 03:03:38;;;;;;;8.40;1.15;;;;;;;6.56;78.64;98365.22;4969285;28;20097;-58
2022/01/04 03:06:04;;;;;;;12.45;1.88;;;;;;;6.56;78.73;98358.34;4965191;28;20134;-58
2022/01/04 03:08:31;;;;;;;10.77;1.40;;;;;;;6.58;78.32;98360.91;4965836;28;20054;-58
2022/01/04 03:10:57;;;;;;;12.70;1.38;;;;;;;6.60;78.35;98361.75;4965236;28;20097;-59
2022/01/04 03:13:24;;;;;;;12.85;1.90;;;;;;;6.60;79.19;98364.31;4967672;28;20063;-54
2022/01/04 03:15:50;;;;;;;10.73;1.45;;;;;;;6.63;78.52;98368.56;4967685;28;20113;-59
2022/01/04 03:18:17;;;;;;;9.38;1.50;;;;;;;6.62;78.75;98359.16;4968820;28;20047;-55
2022/01/04 03:20:44;;;;;;;4.88;1.25;;;;;;;6.64;77.73;98355.69;4966969;28;20042;-55
2022/01/04 03:23:10;;;;;;;10.73;1.27;;;;;;;6.65;78.66;98346.22;4966381;28;20055;-59
2022/01/04 03:25:40;;;;;;;11.65;1.55;;;;;;;6.65;78.38;98344.50;4967468;28;20142;-54
2022/01/04 03:28:07;;;;;;;12.95;1.25;;;;;;;6.66;78.91;98337.66;4967804;28;20591;-58
2022/01/04 03:30:34;;;;;;;5.45;1.50;;;;;;;6.64;78.65;98335.09;4968596;28;20042;-60
2022/01/04 03:33:01;;;;;;;9.80;2.38;;;;;;;6.63;78.30;98338.56;4962815;28;20059;-54
2022/01/04 03:35:28;;;;;;;11.68;1.30;;;;;;;6.61;79.18;98340.28;4968296;28;20043;-57
2022/01/04 03:37:55;;;;;;;10.63;1.98;;;;;;;6.62;77.94;98336.84;4960793;28;20055;-57
2022/01/04 03:40:21;;;;;;;9.07;1.75;;;;;;;6.61;78.95;98330.00;4966614;28;20055;-54
2022/01/04 03:42:48;;;;;;;12.43;1.65;;;;;;;6.62;77.51;98333.44;4965381;28;20098;-56
2022/01/04 03:45:14;;;;;;;9.57;1.85;;;;;;;6.60;77.50;98333.44;4964373;28;20045;-56
2022/01/04 03:47:41;;;;;;;10.43;2.35;;;;;;;6.61;78.17;98335.13;4968016;28;20053;-56
2022/01/04 03:50:08;;;;;;;11.45;1.67;;;;;;;6.60;77.56;98333.44;4969383;28;20047;-60
2022/01/04 03:52:36;;;;;;;6.72;1.13;;;;;;;6.59;79.32;98336.91;4965971;28;20047;-60
2022/01/04 03:55:05;;;;;;;9.68;1.13;;;;;;;6.59;79.04;98341.19;4962031;28;20065;-59
2022/01/04 03:57:32;;;;;;;4.97;1.55;;;;;;;6.58;77.99;98337.75;4962594;28;20483;-53
2022/01/04 03:59:59;;;;;;;10.75;1.40;;;;;;;6.58;77.57;98334.34;4963521;28;20058;-60
2022/01/04 04:02:26;;;;;;;6.43;0.80;;;;;;;6.55;78.25;98330.06;4961142;28;20069;-58
2022/01/04 04:04:52;;;;;;;7.13;0.95;;;;;;;6.54;79.01;98320.66;4966702;28;20472;-55
2022/01/04 04:07:19;;;;;;;13.18;1.90;;;;;;;6.53;78.69;98321.53;4962039;28;20050;-60
2022/01/04 04:09:46;;;;;;;7.80;1.00;;;;;;;6.54;79.26;98318.94;4965982;28;20047;-58
2022/01/04 04:12:14;;;;;;;20.63;1.58;;;;;;;6.55;78.21;98322.34;4964407;28;20106;-53
2022/01/04 04:14:42;;;;;;;8.38;1.10;;;;;;;6.52;77.64;98330.13;4966541;28;20466;-53
2022/01/04 04:17:13;;;;;;;6.72;1.50;;;;;;;6.52;78.30;98319.84;4968520;28;20456;-56
2022/01/04 04:19:40;;;;;;;8.10;1.25;;;;;;;6.52;78.54;98319.84;4965172;28;20153;-55
2022/01/04 04:22:06;;;;;;;8.77;1.20;;;;;;;6.50;78.31;98321.59;4964822;28;20039;-59
2022/01/04 04:24:33;;;;;;;5.10;0.88;;;;;;;6.49;78.61;98315.56;4963623;28;20058;-59
2022/01/04 04:26:59;;;;;;;5.28;0.95;;;;;;;6.49;78.50;98314.75;4966373;28;20047;-53
2022/01/04 04:29:26;;;;;;;7.25;1.67;;;;;;;6.53;78.93;98318.97;4966445;28;20054;-54
2022/01/04 04:31:52;;;;;;;10.35;1.40;;;;;;;6.52;78.65;98317.28;4965513;28;20050;-54
2022/01/04 04:34:19;;;;;;;3.50;1.15;;;;;;;6.53;79.22;98324.13;4965349;28;20120;-57
2022/01/04 04:36:46;;;;;;;8.95;0.88;;;;;;;6.55;78.79;98315.50;4961425;28;20086;-58
2022/01/04 04:39:17;;;;;;;7.63;1.40;;;;;;;6.56;79.48;98321.50;4963971;28;20065;-56
2022/01/04 04:41:44;;;;;;;6.93;0.93;;;;;;;6.55;78.25;98319.78;4967127;28;20097;-53
2022/01/04 04:44:10;;;;;;;5.30;0.95;;;;;;;6.57;79.40;98325.78;4965432;28;20062;-56
2022/01/04 04:46:37;;;;;;;4.65;0.70;;;;;;;6.59;78.13;98326.63;4971072;28;20050;-54
2022/01/04 04:49:05;;;;;;;7.78;1.50;;;;;;;6.58;78.86;98324.88;4964476;28;20062;-60
2022/01/04 04:51:32;;;;;;;10.25;1.20;;;;;;;6.58;79.38;98330.03;4966074;28;20050;-54
2022/01/04 04:53:59;;;;;;;9.20;1.00;;;;;;;6.59;78.24;98330.91;4959649;28;20109;-57
2022/01/04 04:56:25;;;;;;;9.88;1.42;;;;;;;6.58;78.08;98332.59;4966413;28;20430;-58
2022/01/04 04:58:52;;;;;;;4.47;0.90;;;;;;;6.59;79.49;98336.91;4966080;28;20050;-56
2022/01/04 05:01:18;;;;;;;1.90;0.65;;;;;;;6.41;78.39;98346.56;4967756;28;20094;-54
2022/01/04 05:03:45;;;;;;;2.67;0.85;;;;;;;6.24;77.93;98345.91;4965259;28;20054;-57
2022/01/04 05:06:12;;;;;;;2.85;1.30;;;;;;;5.99;76.92;98346.19;4963788;28;20068;-52
2022/01/04 05:08:39;;;;;;;3.47;1.13;;;;;;;5.86;76.70;98346.34;4958792;28;20043;-61
2022/01/04 05:11:05;;;;;;;2.78;1.05;;;;;;;5.75;77.13;98348.16;4967075;28;20050;-54
2022/01/04 05:13:32;;;;;;;2.90;1.40;;;;;;;5.61;76.74;98338.03;4963785;28;20546;-53
2022/01/04 05:15:58;;;;;;;2.45;0.90;;;;;;;5.51;77.29;98340.69;4969061;28;20481;-55
2022/01/04 05:18:25;;;;;;;3.85;1.52;;;;;;;5.32;76.79;98350.28;4961090;28;20047;-57
2022/01/04 05:20:52;;;;;;;2.38;1.05;;;;;;;5.17;77.17;98347.84;4966390;28;20050;-62
2022/01/04 05:23:18;;;;;;;2.33;0.98;;;;;;;5.01;77.26;98353.09;4959250;28;20129;-57
2022/01/04 05:25:45;;;;;;;1.95;1.08;;;;;;;4.92;76.78;98361.69;4963546;28;20487;-62
2022/01/04 05:28:12;;;;;;;1.75;0.93;;;;;;;4.83;77.37;98367.75;4965041;28;20054;-59
2022/01/04 05:30:38;;;;;;;1.80;0.50;;;;;;;4.76;77.40;98376.31;4965573;28;20090;-59
2022/01/04 05:33:05;;;;;;;1.77;0.60;;;;;;;4.65;77.62;98370.41;4963711;28;20503;-52
2022/01/04 05:35:31;;;;;;;1.50;0.85;;;;;;;4.54;77.04;98379.03;4967627;28;20124;-57
2022/01/04 05:37:58;;;;;;;1.58;0.65;;;;;;;4.47;77.67;98379.91;4968048;28;20144;-57
2022/01/04 05:40:25;;;;;;;1.67;1.05;;;;;;;4.49;77.54;98386.75;4964124;28;20050;-52
2022/01/04 05:42:51;;;;;;;2.00;1.00;;;;;;;4.41;77.33;98385.94;4967854;28;20105;-57
2022/01/04 05:45:18;;;;;;;2.17;0.88;;;;;;;4.35;77.65;98391.06;4968767;28;20073;-56
2022/01/04 05:47:45;;;;;;;3.05;1.20;;;;;;;4.37;77.67;98394.50;4965449;28;20078;-58
2022/01/04 05:50:13;;;;;;;3.72;1.13;;;;;;;4.33;77.51;98398.75;4966814;28;20050;-56
2022/01/04 05:52:40;;;;;;;2.03;0.68;;;;;;;4.23;77.50;98400.50;4964540;28;20047;-53
2022/01/04 05:55:07;;;;;;;3.53;1.27;;;;;;;4.25;77.63;98405.63;4967986;28;20309;-59
2022/01/04 05:57:33;;;;;;;3.67;1.50;;;;;;;4.21;77.78;98407.38;4967287;28;20047;-53
2022/01/04 06:00:01;;;;;;;4.13;2.03;;;;;;;4.19;77.60;98410.81;4965231;28;20054;-59
2022/01/04 06:02:27;;;;;;;3.83;1.30;;;;;;;4.19;77.77;98415.94;4963780;28;20043;-53
2022/01/04 06:04:54;;;;;;;2.03;0.68;;;;;;;4.14;77.06;98415.06;4966465;28;20098;-54
2022/01/04 06:07:21;;;;;;;2.17;1.25;;;;;;;3.99;77.07;98416.84;4966278;28;20101;-57
2022/01/04 06:09:50;;;;;;;2.03;0.57;;;;;;;3.94;76.93;98428.78;4968486;28;20050;-58
2022/01/04 06:15:06;;;;;;;2.15;0.65;;;;;;;3.88;77.25;98416.00;4975279;28;20106;-54
2022/01/04 06:17:34;;;;;;;1.15;0.50;;;;;;;3.83;76.79;98418.56;4964723;28;20047;-52
2022/01/04 06:20:04;;;;;;;2.70;0.98;;;;;;;3.75;77.10;98426.25;4972295;28;20402;-52
2022/01/04 06:22:30;;;;;;;2.28;0.80;;;;;;;3.72;76.98;98424.53;4969690;28;20047;-55
2022/01/04 06:24:57;;;;;;;1.88;0.68;;;;;;;3.69;76.70;98444.19;4967764;28;20097;-58
2022/01/04 06:27:25;;;;;;;2.58;0.63;;;;;;;3.71;76.99;98445.88;4968032;28;20051;-55
2022/01/04 06:29:52;;;;;;;0.98;0.40;;;;;;;3.59;76.70;98443.34;4967613;28;20109;-59
2022/01/04 06:32:18;;;;;;;1.20;0.90;;;;;;;3.55;76.62;98446.75;4966112;28;20105;-55
2022/01/04 06:34:45;;;;;;;1.65;0.63;;;;;;;3.56;77.12;98443.34;4969272;28;20113;-55
2022/01/04 06:37:13;;;;;;;3.45;1.00;;;;;;;3.51;76.75;98443.31;4968962;28;20434;-50
2022/01/04 06:39:40;;;;;;;2.83;0.75;;;;;;;3.50;76.52;98440.75;4968257;28;20043;-55
2022/01/04 06:42:07;;;;;;;1.65;0.88;;;;;;;3.51;76.63;98453.56;4968878;28;20051;-57
2022/01/04 06:44:34;;;;;;;2.17;0.95;;;;;;;3.46;77.40;98460.41;4969300;28;20490;-54
2022/01/04 06:47:00;;;;;;;1.42;1.27;;;;;;;3.36;77.30;98451.88;4965234;28;20131;-54
2022/01/04 06:49:27;;;;;;;2.70;0.98;;;;;;;3.38;77.09;98457.00;4970253;28;20093;-55
2022/01/04 06:51:54;;;;;;;2.72;1.88;;;;;;;3.35;77.57;98457.84;4967019;28;20045;-54
2022/01/04 06:54:21;;;;;;;2.83;1.25;;;;;;;3.28;77.60;98462.09;4969894;28;20058;-53
2022/01/04 06:56:48;;;;;;;2.00;0.80;;;;;;;3.25;77.76;98469.78;4964356;28;20545;-54
2022/01/04 06:59:17;;;;;;;1.88;0.90;;;;;;;3.16;77.20;98472.31;4964221;28;20731;-58
2022/01/04 07:01:44;;;;;;;1.13;0.50;;;;;;;3.10;77.58;98472.31;4964973;28;20105;-56
2022/01/04 07:04:11;;;;;;;0.63;0.30;;;;;;;3.03;77.61;98476.53;4966363;28;20082;-53
2022/01/04 07:06:38;;;;;;;1.52;0.70;;;;;;;3.02;77.02;98480.81;4965374;28;20062;-59
2022/01/04 07:09:07;;;;;;;0.80;0.68;;;;;;;2.95;77.64;98485.03;4961942;28;20097;-51
2022/01/04 07:11:34;;;;;;;0.60;0.40;;;;;;;2.93;77.37;98496.13;4963357;28;20046;-55
2022/01/04 07:14:01;;;;;;;1.00;0.60;;;;;;;2.88;77.23;98497.81;4962050;28;20059;-58
2022/01/04 07:16:28;;;;;;;0.32;0.22;;;;;;;2.84;77.30;98502.06;4966159;28;20050;-53
2022/01/04 07:18:55;;;;;;;0.47;0.47;;;;;;;2.81;77.59;98508.00;4969468;28;20071;-58
2022/01/04 07:21:22;;;;;;;0.70;0.40;;;;;;;2.78;76.96;98513.13;4968779;28;20422;-55
2022/01/04 07:23:49;;;;;;;1.38;0.68;;;;;;;2.79;77.33;98517.41;4968638;28;20101;-51
2022/01/04 07:26:16;;;;;;;1.30;0.85;;;;;;;2.73;77.57;98519.91;4961215;28;20758;-56
2022/01/04 07:28:46;;;;;;;1.67;0.70;;;;;;;2.69;77.65;98520.75;4965313;28;20054;-58
2022/01/04 07:31:14;;;;;;;2.53;0.80;;;;;;;2.65;77.84;98532.69;4960569;28;20136;-55
2022/01/04 07:33:41;;;;;;;0.98;0.50;;;;;;;2.54;77.03;98535.16;4960232;28;20046;-59
2022/01/04 07:36:08;;;;;;;2.05;0.90;;;;;;;2.52;77.02;98536.00;4961385;28;20671;-59
2022/01/04 07:38:36;;;;;;;2.05;0.60;;;;;;;2.43;77.77;98535.09;4960498;28;20055;-53
2022/01/04 07:41:03;;;;;;;3.08;0.52;;;;;;;2.39;78.06;98542.72;4961288;28;20050;-58
2022/01/04 07:43:31;;;;;;;1.25;0.70;;;;;;;2.38;76.55;98543.59;4962360;28;20074;-57
2022/01/04 07:45:58;;;;;;;1.63;1.20;;;;;;;2.36;77.78;98553.78;4964001;28;20487;-56
2022/01/04 07:48:25;;;;;;;2.33;1.00;;;;;;;2.35;77.92;98558.91;4962390;28;20051;-58
2022/01/04 07:50:55;;;;;;;2.45;0.90;;;;;;;2.27;77.78;98564.81;4963315;28;20063;-54
2022/01/04 07:53:27;;;;;;;2.58;1.00;;;;;;;2.28;78.30;98569.09;4959217;28;20065;-58
2022/01/04 07:55:54;;;;;;;2.45;0.82;;;;;;;2.27;77.17;98577.56;4960503;28;20109;-58
2022/01/04 07:58:22;;;;;;;3.92;2.08;;;;;;;2.29;77.33;98581.00;4964300;28;20062;-60
2022/01/04 08:00:49;;;;;;;2.67;1.05;;;;;;;2.20;76.98;98578.41;4961501;28;20062;-60
2022/01/04 08:03:17;;;;;;;1.73;0.73;;;;;;;2.16;77.81;98576.69;4959326;28;20137;-54
2022/01/04 08:05:43;;;;;;;2.83;1.23;;;;;;;2.08;76.49;98580.84;4960650;28;20047;-52
2022/01/04 08:08:10;;;;;;;2.45;1.35;;;;;;;2.15;76.70;98582.59;4961315;28;20055;-54
2022/01/04 08:10:37;;;;;;;2.53;1.58;;;;;;;2.08;77.85;98591.06;4959529;28;20459;-54
2022/01/04 08:13:03;;;;;;;4.57;1.17;;;;;;;2.07;76.20;98599.56;4962866;28;20050;-53
2022/01/04 08:15:30;;;;;;;1.95;0.90;;;;;;;2.06;77.45;98596.16;4962789;28;20054;-56
2022/01/04 08:17:58;;;;;;;2.75;1.13;;;;;;;2.08;76.71;98596.16;4960317;28;20138;-56
2022/01/04 08:20:25;;;;;;;1.88;0.77;;;;;;;2.05;76.93;98592.75;4955884;28;20051;-58
2022/01/04 08:22:51;;;;;;;1.88;1.13;;;;;;;2.03;76.56;98599.53;4961010;28;20564;-58
2022/01/04 08:25:18;;;;;;;2.00;0.85;;;;;;;2.01;76.31;98596.13;4965667;28;20530;-53
2022/01/04 08:27:45;;;;;;;3.10;1.35;;;;;;;2.02;76.90;98600.38;4964216;28;20565;-60
2022/01/04 08:30:13;;;;;;;2.10;1.17;;;;;;;2.01;75.58;98601.25;4959966;28;20055;-53
2022/01/04 08:32:41;;;;;;;3.63;1.08;;;;;;;2.02;77.00;98608.06;4963547;28;20051;-50
2022/01/04 08:35:08;;;;;;;5.10;1.33;;;;;;;2.02;76.99;98612.28;4962316;28;20038;-57
2022/01/04 08:37:35;;;;;;;4.18;1.30;;;;;;;2.02;77.08;98618.28;4956264;28;20047;-53
2022/01/04 08:40:04;;;;;;;7.88;1.52;;;;;;;2.05;76.25;98613.19;4952190;28;20059;-56
2022/01/04 08:42:32;;;;;;;4.88;0.88;;;;;;;2.03;75.82;98619.13;4958582;28;20098;-58
2022/01/04 08:44:58;;;;;;;4.93;0.93;;;;;;;2.07;75.91;98625.97;4958908;28;20091;-54
2022/01/04 08:47:26;;;;;;;2.70;0.77;;;;;;;2.05;75.69;98628.53;4958750;28;20049;-55
2022/01/04 08:49:53;;;;;;;3.28;1.33;;;;;;;2.08;76.38;98631.94;4962947;28;20097;-54
2022/01/04 08:52:19;;;;;;;1.67;0.45;;;;;;;2.07;75.23;98633.66;4956083;28;20046;-54
2022/01/04 08:54:47;;;;;;;1.98;0.80;;;;;;;2.04;76.04;98631.94;4962750;28;20554;-57
2022/01/04 08:57:13;;;;;;;1.95;0.65;;;;;;;2.04;76.00;98636.16;4963065;28;20063;-53
2022/01/04 08:59:40;;;;;;;6.80;0.73;;;;;;;2.04;75.07;98652.34;4959747;28;20086;-56
2022/01/04 09:02:07;;;;;;;4.90;1.48;;;;;;;2.03;76.32;98649.78;4956245;28;20054;-56
2022/01/04 09:04:34;;;;;;;3.30;0.90;;;;;;;2.04;76.29;98661.72;4965359;28;20083;-59
2022/01/04 09:07:02;;;;;;;4.07;0.80;;;;;;;2.03;75.99;98653.19;4961719;28;20093;-56
2022/01/04 09:09:28;;;;;;;3.90;1.60;;;;;;;2.02;75.90;98658.25;4960502;28;20101;-55
2022/01/04 09:12:16;;;;;;;4.75;1.05;;;;;;;1.97;75.44;98665.91;4961108;28;20122;-54
2022/01/04 09:14:55;;;;;;;2.45;0.93;;;;;;;1.99;75.73;98661.66;4957231;28;20121;-53
2022/01/04 09:20:12;;;;;;;3.88;0.80;;;;;;;2.03;75.98;98665.09;4965780;28;20055;-51
2022/01/04 09:22:40;;;;;;;1.80;1.15;;;;;;;2.08;74.59;98673.66;4968116;28;20051;-53
2022/01/04 09:25:08;;;;;;;3.97;0.60;;;;;;;2.07;74.80;98669.41;4964829;28;21159;-59
2022/01/04 09:27:35;;;;;;;2.25;0.90;;;;;;;2.08;75.65;98672.78;4964714;28;20399;-60
2022/01/04 09:30:04;;;;;;;1.35;0.47;;;;;;;2.05;74.78;98679.59;4964975;28;20078;-58
2022/01/04 09:32:33;;;;;;;1.15;0.40;;;;;;;2.10;75.26;98686.44;4965816;28;20495;-53
2022/01/04 09:35:01;;;;;;;3.05;0.63;;;;;;;2.06;74.10;98688.09;4961652;28;20066;-57
2022/01/04 09:37:28;;;;;;;1.40;0.73;;;;;;;2.03;74.22;98694.03;4963177;28;20050;-56
2022/01/04 09:39:54;;;;;;;4.78;0.55;;;;;;;2.00;75.20;98699.16;4961051;28;20043;-55
2022/01/04 09:42:21;;;;;;;3.95;0.80;;;;;;;2.08;75.39;98695.78;4967851;28;20104;-54
2022/01/04 09:44:49;;;;;;;2.25;0.93;;;;;;;2.09;75.27;98702.63;4963582;28;20051;-61
2022/01/04 09:47:15;;;;;;;3.78;0.88;;;;;;;2.09;74.46;98703.47;4976146;28;20101;-57
2022/01/04 09:49:42;;;;;;;5.32;0.77;;;;;;;2.08;74.42;98708.56;4965011;28;20046;-59
2022/01/04 09:52:09;;;;;;;0.85;0.43;;;;;;;2.15;74.60;98707.78;4968765;28;20047;-54
2022/01/04 09:54:38;;;;;;;1.73;1.05;;;;;;;2.19;74.22;98706.97;4966873;28;20051;-53
2022/01/04 09:57:05;;;;;;;6.95;1.02;;;;;;;2.21;75.50;98712.97;4969395;28;20511;-54
2022/01/04 09:59:31;;;;;;;3.05;0.85;;;;;;;2.27;74.20;98715.56;4965741;28;20055;-55
2022/01/04 10:02:11;;;;;;;1.75;0.50;;;;;;;2.28;74.29;98722.41;4966299;28;20055;-56
2022/01/04 10:04:38;;;;;;;2.75;1.00;;;;;;;2.29;73.93;98721.53;4968130;28;20043;-56
2022/01/04 10:07:08;;;;;;;2.90;0.77;;;;;;;2.33;74.09;98731.81;4965099;28;20490;-60
2022/01/04 10:09:45;;;;;;;2.15;0.80;;;;;;;2.25;73.04;98727.47;4965919;28;20117;-58
2022/01/04 10:12:16;;;;;;;2.60;0.63;;;;;;;2.26;74.28;98734.28;4966053;28;20062;-52
2022/01/04 10:14:46;;;;;;;2.65;0.70;;;;;;;2.29;75.17;98733.47;4964418;28;20055;-53
2022/01/04 10:17:19;;;;;;;3.35;0.93;;;;;;;2.26;73.29;98734.28;4965952;28;20054;-57
2022/01/04 10:19:49;;;;;;;2.22;0.57;;;;;;;2.25;74.60;98734.28;4963983;28;20110;-58
2022/01/04 10:22:38;;;;;;;1.60;0.93;;;;;;;2.23;74.41;98741.09;4966863;28;20109;-57
2022/01/04 10:25:09;;;;;;;1.08;0.65;;;;;;;2.23;74.54;98744.47;4953417;28;20059;-56
2022/01/04 10:27:41;;;;;;;3.15;0.40;;;;;;;2.25;74.00;98742.81;4972513;28;20054;-54
2022/01/04 10:30:17;;;;;;;2.75;0.93;;;;;;;2.25;73.74;98747.91;4968977;28;20101;-57
2022/01/04 10:32:47;;;;;;;0.93;0.40;;;;;;;2.25;74.12;98747.91;4964094;28;20058;-55
2022/01/04 10:35:36;;;;;;;0.82;0.30;;;;;;;2.26;73.22;98746.22;4965599;28;20050;-56
2022/01/04 10:38:23;;;;;;;0.68;0.22;;;;;;;2.27;72.98;98741.09;4973740;28;20046;-59
2022/01/04 10:40:57;;;;;;;0.93;0.30;;;;;;;2.30;72.78;98746.25;4963680;28;20051;-60
2022/01/04 10:43:37;;;;;;;1.25;0.25;;;;;;;2.37;74.53;98746.31;4964650;28;20052;-60
2022/01/04 10:46:07;;;;;;;;;;;;;;;2.38;73.61;98750.59;4959584;28;20070;-52
2022/01/04 10:48:39;;;;;;;2.45;0.80;;;;;;;2.42;73.26;98755.75;4961907;28;20013;-55
2022/01/04 10:51:12;;;;;;;1.77;0.30;;;;;;;2.47;73.43;98753.25;4965054;28;20099;-61
2022/01/04 10:53:41;;;;;;;0.30;0.30;;;;;;;2.47;73.63;98753.25;4964622;28;20047;-55
2022/01/04 10:56:22;;;;;;;1.83;0.57;;;;;;;2.48;72.78;98749.84;4967278;28;20046;-53
2022/01/04 10:58:51;;;;;;;1.52;0.52;;;;;;;2.51;73.00;98765.22;4971134;28;20769;-55
2022/01/04 11:01:21;;;;;;;2.90;0.80;;;;;;;2.55;73.46;98751.59;4962850;28;20120;-55
2022/01/04 11:03:53;;;;;;;4.70;0.82;;;;;;;2.58;73.92;98750.78;4962818;28;20054;-53
2022/01/04 11:06:43;;;;;;;4.13;1.17;;;;;;;2.62;72.62;98756.75;4968311;28;20050;-57
2022/01/04 11:09:11;;;;;;;2.35;1.15;;;;;;;2.66;73.83;98755.94;4961392;28;20051;-51
2022/01/04 11:11:40;;;;;;;4.70;1.98;;;;;;;2.72;72.99;98753.44;4965901;28;20055;-55
2022/01/04 11:14:08;;;;;;;5.45;1.40;;;;;;;2.79;73.67;98744.97;4964387;28;20051;-54
2022/01/04 11:16:35;;;;;;;1.67;0.75;;;;;;;2.88;72.78;98748.44;4965660;28;20046;-53
2022/01/04 11:19:03;;;;;;;2.03;0.50;;;;;;;2.87;72.18;98746.75;4963825;28;20078;-56
2022/01/04 11:21:32;;;;;;;2.42;0.50;;;;;;;2.89;72.93;98739.91;4969817;28;20102;-56
2022/01/04 11:24:01;;;;;;;0.98;0.73;;;;;;;2.95;72.01;98742.53;4963904;28;20101;-51
2022/01/04 11:26:29;;;;;;;0.77;0.52;;;;;;;2.97;72.04;98740.84;4960724;28;20047;-53
2022/01/04 11:28:57;;;;;;;3.08;0.40;;;;;;;3.03;71.99;98743.44;4965027;28;20085;-50
2022/01/04 11:31:41;;;;;;;0.77;0.50;;;;;;;3.05;71.76;98741.78;4965105;28;20090;-52
2022/01/04 11:34:14;;;;;;;1.25;0.68;;;;;;;3.13;72.25;98739.25;4963872;28;20883;-53
2022/01/04 11:36:43;;;;;;;1.35;0.93;;;;;;;3.16;71.40;98743.53;4965094;28;20102;-57
2022/01/04 11:39:30;;;;;;;5.07;0.40;;;;;;;3.26;71.08;98744.44;4967869;28;20099;-52
2022/01/04 11:42:01;;;;;;;1.02;1.02;;;;;;;3.33;70.48;98754.72;4963900;28;20050;-48
2022/01/04 11:44:31;;;;;;;2.08;0.80;;;;;;;3.41;70.63;98759.03;4959809;28;20055;-52
2022/01/04 11:47:09;;;;;;;2.88;0.90;;;;;;;3.44;70.01;98761.59;4959497;28;20051;-57
2022/01/04 11:49:39;;;;;;;5.25;0.60;;;;;;;3.53;70.69;98748.84;4964130;28;20101;-55
2022/01/04 11:52:08;;;;;;;1.38;0.60;;;;;;;3.75;70.01;98743.81;4961199;28;20197;-57
2022/01/04 11:54:35;;;;;;;4.30;0.73;;;;;;;3.92;69.51;98756.69;4962991;28;21308;-53